Terminal Aerodrome Forecast
Issued by NWS

Home | Current Version | Previous Version | Text Only | Print | Product List | Glossary On
Versions: 1 2 3 4 5 6 7 8 9 10 11 12 13 14 15 16 17 18 19 20 21
000
FTUS43 KICT 251734
TAFRSL
TAF
KRSL 251734Z 2518/2618 02012KT P6SM SCT030 BKN070
     FM260000 04006KT P6SM SCT020 BKN035
     FM260400 03006KT P6SM VCTS BKN035CB
     FM260800 04006KT 5SM -TSRA BKN012CB
     FM261300 16007KT P6SM SCT030 BKN060=

USA.gov is the U.S. government's official web portal to all federal, state and local government web resources and services.